createdAt,value
2024-01-19T00:01:39.590Z,1.20
2024-01-19T00:04:06.436Z,1.30
2024-01-19T00:06:34.782Z,1.30
2024-01-19T00:09:01.726Z,1.40
2024-01-19T00:11:28.723Z,1.30
2024-01-19T00:13:55.552Z,1.30
2024-01-19T00:16:22.541Z,1.40
2024-01-19T00:18:49.568Z,1.30
2024-01-19T00:21:16.893Z,1.30
2024-01-19T00:23:43.891Z,1.30
2024-01-19T00:26:11.995Z,1.30
2024-01-19T00:28:38.880Z,1.30
2024-01-19T00:31:07.346Z,1.30
2024-01-19T00:33:34.241Z,1.20
2024-01-19T00:36:01.354Z,1.30
2024-01-19T00:38:28.313Z,1.30
2024-01-19T00:40:55.324Z,1.40
2024-01-19T00:43:22.213Z,1.30
2024-01-19T00:45:49.092Z,1.30
2024-01-19T00:48:16.104Z,1.40
2024-01-19T00:50:43.118Z,1.30
2024-01-19T00:53:10.032Z,1.30
2024-01-19T00:55:36.914Z,1.40
2024-01-19T00:58:03.755Z,1.40
2024-01-19T01:00:30.684Z,1.40
2024-01-19T01:02:58.446Z,1.40
2024-01-19T01:05:25.619Z,1.50
2024-01-19T01:07:52.603Z,1.50
2024-01-19T01:10:19.569Z,1.50
2024-01-19T01:12:46.565Z,1.50
2024-01-19T01:15:15.484Z,1.50
2024-01-19T01:17:42.770Z,1.50
2024-01-19T01:20:12.534Z,1.40
2024-01-19T01:22:39.923Z,1.50
2024-01-19T01:25:06.949Z,1.40
2024-01-19T01:27:33.818Z,1.40
2024-01-19T01:30:00.867Z,1.40
2024-01-19T01:32:27.950Z,1.40
2024-01-19T01:34:54.928Z,1.40
2024-01-19T01:37:21.767Z,1.30
2024-01-19T01:39:48.635Z,1.30
2024-01-19T01:42:15.745Z,1.30
2024-01-19T01:44:42.741Z,1.30
2024-01-19T01:47:09.673Z,1.30
2024-01-19T01:49:36.984Z,1.20
2024-01-19T01:52:05.114Z,1.20
2024-01-19T01:54:32.049Z,1.10
2024-01-19T01:56:59.211Z,1.20
2024-01-19T01:59:26.316Z,1.20
2024-01-19T02:01:53.264Z,1.20
2024-01-19T02:04:21.176Z,1.30
2024-01-19T02:06:48.232Z,1.40
2024-01-19T02:09:15.620Z,1.30
2024-01-19T02:11:43.025Z,1.40
2024-01-19T02:14:11.705Z,1.40
2024-01-19T02:16:39.042Z,1.40
2024-01-19T02:19:06.097Z,1.40
2024-01-19T02:21:33.120Z,1.40
2024-01-19T02:24:02.473Z,1.40
2024-01-19T02:26:36.826Z,1.40
2024-01-19T02:29:04.143Z,1.40
2024-01-19T02:31:31.741Z,1.40
2024-01-19T02:33:59.061Z,1.40
2024-01-19T02:36:26.058Z,1.40
2024-01-19T02:38:53.018Z,1.30
2024-01-19T02:41:20.467Z,1.40
2024-01-19T02:43:47.409Z,1.30
2024-01-19T02:46:16.757Z,1.40
2024-01-19T02:48:43.931Z,1.40
2024-01-19T02:51:10.938Z,1.40
2024-01-19T02:53:37.849Z,1.40
2024-01-19T02:56:05.499Z,1.30
2024-01-19T02:58:32.385Z,1.30
2024-01-19T03:01:00.646Z,1.30
2024-01-19T03:03:27.824Z,1.20
2024-01-19T03:05:54.938Z,1.30
2024-01-19T03:08:23.429Z,1.20
2024-01-19T03:10:50.404Z,1.20
2024-01-19T03:13:17.316Z,1.20
2024-01-19T03:15:44.510Z,1.30
2024-01-19T03:18:11.560Z,1.20
2024-01-19T03:20:38.551Z,1.20
2024-01-19T03:23:06.927Z,1.20
2024-01-19T03:25:34.547Z,1.30
2024-01-19T03:28:01.505Z,1.40
2024-01-19T03:30:28.431Z,1.40
2024-01-19T03:32:55.397Z,1.40
2024-01-19T03:35:22.327Z,1.40
2024-01-19T03:37:49.738Z,1.30
2024-01-19T03:40:16.843Z,1.30
2024-01-19T03:42:43.865Z,1.40
2024-01-19T03:45:11.226Z,1.40
2024-01-19T03:47:38.157Z,1.30
2024-01-19T03:50:07.516Z,1.40
2024-01-19T03:52:34.662Z,1.40
2024-01-19T03:55:01.999Z,1.50
2024-01-19T03:57:28.928Z,1.50
2024-01-19T03:59:55.957Z,1.50
2024-01-19T04:02:23.076Z,1.50
2024-01-19T04:04:50.362Z,1.50
2024-01-19T04:07:17.337Z,1.50
2024-01-19T04:09:44.335Z,1.50
2024-01-19T04:12:16.662Z,1.50
2024-01-19T04:14:45.304Z,1.50
2024-01-19T04:17:13.208Z,1.50
2024-01-19T04:19:41.328Z,1.50
2024-01-19T04:22:08.253Z,1.50
2024-01-19T04:24:35.106Z,1.60
2024-01-19T04:27:02.044Z,1.60
2024-01-19T04:29:29.386Z,1.50
2024-01-19T04:31:57.217Z,1.50
2024-01-19T04:34:24.145Z,1.50
2024-01-19T04:36:51.094Z,1.50
2024-01-19T04:39:17.982Z,1.50
2024-01-19T04:41:44.957Z,1.50
2024-01-19T04:44:12.112Z,1.50
2024-01-19T04:46:41.641Z,1.50
2024-01-19T04:49:09.491Z,1.50
2024-01-19T04:51:36.574Z,1.40
2024-01-19T04:54:03.696Z,1.40
2024-01-19T04:56:30.641Z,1.40
2024-01-19T04:58:57.680Z,1.30
2024-01-19T05:01:24.536Z,1.30
2024-01-19T05:03:51.600Z,1.20
2024-01-19T05:06:19.512Z,1.20
2024-01-19T05:08:47.488Z,1.20
2024-01-19T05:11:15.320Z,1.20
2024-01-19T05:13:42.813Z,1.20
2024-01-19T05:16:10.562Z,1.10
2024-01-19T05:18:37.680Z,1.00
2024-01-19T05:21:05.230Z,1.10
2024-01-19T05:23:32.570Z,1.00
2024-01-19T05:25:59.701Z,0.90
2024-01-19T05:28:26.625Z,0.90
2024-01-19T05:30:53.653Z,0.90
2024-01-19T05:33:20.742Z,0.90
2024-01-19T05:35:47.844Z,0.70
2024-01-19T05:38:14.736Z,0.70
2024-01-19T05:40:41.667Z,0.60
2024-01-19T05:43:08.547Z,0.70
2024-01-19T05:45:35.385Z,0.60
2024-01-19T05:48:02.405Z,0.50
2024-01-19T05:50:29.638Z,0.50
2024-01-19T05:52:58.186Z,0.50
2024-01-19T05:55:26.555Z,0.50
2024-01-19T05:57:53.443Z,0.60
2024-01-19T06:00:21.193Z,0.50
2024-01-19T06:02:48.190Z,0.40
2024-01-19T06:05:15.209Z,0.30
2024-01-19T06:07:42.118Z,0.30
2024-01-19T06:10:10.389Z,0.30
2024-01-19T06:12:37.261Z,0.30
2024-01-19T06:15:05.038Z,0.30
2024-01-19T06:17:32.051Z,0.20
2024-01-19T06:19:59.003Z,0.30
2024-01-19T06:22:26.018Z,0.50
2024-01-19T06:24:52.852Z,0.60
2024-01-19T06:27:23.473Z,0.50
2024-01-19T06:29:50.494Z,0.50
2024-01-19T06:32:17.491Z,0.50
2024-01-19T06:34:45.786Z,0.50
2024-01-19T06:37:12.817Z,0.50
2024-01-19T06:39:39.815Z,0.50
2024-01-19T06:42:06.933Z,0.60
2024-01-19T06:44:34.054Z,0.50
2024-01-19T06:47:00.988Z,0.40
2024-01-19T06:49:27.916Z,0.30
2024-01-19T06:51:54.946Z,0.30
2024-01-19T06:54:21.871Z,0.30
2024-01-19T06:56:48.756Z,0.30
2024-01-19T06:59:15.649Z,0.30
2024-01-19T07:01:42.550Z,0.20
2024-01-19T07:04:09.579Z,0.20
2024-01-19T07:06:36.590Z,0.20
2024-01-19T07:09:03.734Z,0.30
2024-01-19T07:11:30.937Z,0.30
2024-01-19T07:13:58.570Z,0.40
2024-01-19T07:16:25.455Z,0.30
2024-01-19T07:18:52.567Z,0.40
2024-01-19T07:21:19.720Z,0.40
2024-01-19T07:23:46.858Z,0.40
2024-01-19T07:26:18.436Z,0.50
2024-01-19T07:28:45.543Z,0.40
2024-01-19T07:31:12.478Z,0.40
2024-01-19T07:33:39.624Z,0.50
2024-01-19T07:36:07.098Z,0.50
2024-01-19T07:38:34.001Z,0.50
2024-01-19T07:41:00.940Z,0.60
2024-01-19T07:43:27.799Z,0.70
2024-01-19T07:45:54.707Z,0.70
2024-01-19T07:48:21.815Z,0.70
2024-01-19T07:50:49.508Z,0.70
2024-01-19T07:53:16.702Z,0.80
2024-01-19T07:55:43.568Z,0.90
2024-01-19T07:58:10.426Z,0.90
2024-01-19T08:00:37.332Z,1.00
2024-01-19T08:03:05.632Z,1.00
2024-01-19T08:05:32.689Z,1.00
2024-01-19T08:07:59.608Z,0.90
2024-01-19T08:10:26.551Z,0.90
2024-01-19T08:12:53.413Z,0.80
2024-01-19T08:15:20.286Z,0.80
2024-01-19T08:17:47.320Z,0.80
2024-01-19T08:20:14.342Z,0.80
2024-01-19T08:22:41.228Z,0.80
2024-01-19T08:25:11.046Z,0.80
2024-01-19T08:27:42.701Z,0.80
2024-01-19T08:30:11.144Z,0.90
2024-01-19T08:32:38.193Z,0.90
2024-01-19T08:35:09.728Z,0.90
2024-01-19T08:37:41.523Z,1.00
2024-01-19T08:40:13.048Z,1.10
2024-01-19T08:42:40.890Z,1.20
2024-01-19T08:45:08.491Z,1.20
2024-01-19T08:47:37.016Z,1.20
2024-01-19T08:50:04.416Z,1.20
2024-01-19T08:52:31.349Z,1.30
2024-01-19T08:54:59.211Z,1.20
2024-01-19T08:57:27.320Z,1.20
2024-01-19T08:59:54.361Z,1.20
2024-01-19T09:02:22.290Z,1.30
2024-01-19T09:04:51.274Z,1.30
2024-01-19T09:07:19.837Z,1.40
2024-01-19T09:09:46.850Z,1.50
2024-01-19T09:12:13.667Z,1.50
2024-01-19T09:14:40.569Z,1.60
2024-01-19T09:17:07.498Z,1.70
2024-01-19T09:19:36.319Z,1.80
2024-01-19T09:22:04.744Z,1.80
2024-01-19T09:24:31.884Z,1.90
2024-01-19T09:26:58.824Z,1.90
2024-01-19T09:29:25.693Z,2.00
2024-01-19T09:31:52.613Z,2.10
2024-01-19T09:34:19.505Z,2.20
2024-01-19T09:36:46.411Z,2.20
2024-01-19T09:39:13.523Z,2.30
2024-01-19T09:41:48.480Z,2.50
2024-01-19T09:44:20.786Z,2.40
2024-01-19T09:46:53.526Z,2.50
2024-01-19T09:50:04.491Z,2.50
2024-01-19T09:52:46.335Z,2.50
2024-01-19T09:55:13.913Z,2.60
2024-01-19T09:57:50.193Z,2.70
2024-01-19T10:00:19.761Z,2.90
2024-01-19T10:02:51.527Z,3.10
2024-01-19T10:05:20.539Z,3.10
2024-01-19T10:07:58.969Z,3.20
2024-01-19T10:10:27.091Z,3.10
2024-01-19T10:12:54.253Z,2.80
2024-01-19T10:15:21.195Z,3.00
2024-01-19T10:17:48.375Z,3.20
2024-01-19T10:20:17.375Z,3.40
2024-01-19T10:22:44.763Z,3.60
2024-01-19T10:25:16.142Z,3.60
2024-01-19T10:27:48.634Z,3.90
2024-01-19T10:30:20.049Z,4.10
2024-01-19T10:32:49.664Z,4.00
2024-01-19T10:35:23.692Z,3.90
2024-01-19T10:37:51.358Z,3.90
2024-01-19T10:40:29.264Z,3.60
2024-01-19T10:42:59.375Z,3.60
2024-01-19T10:45:29.294Z,3.80
2024-01-19T10:47:59.217Z,4.00
2024-01-19T10:50:28.390Z,4.00
2024-01-19T10:52:59.791Z,4.10
2024-01-19T10:55:32.074Z,4.30
2024-01-19T10:58:13.932Z,4.40
2024-01-19T11:00:41.354Z,4.40
2024-01-19T11:03:08.658Z,4.50
2024-01-19T11:05:36.041Z,4.40
2024-01-19T11:08:04.535Z,4.50
2024-01-19T11:10:33.583Z,4.60
2024-01-19T11:13:02.570Z,4.60
2024-01-19T11:15:55.289Z,4.80
2024-01-19T11:18:22.283Z,4.70
2024-01-19T11:20:49.511Z,4.60
2024-01-19T11:23:18.166Z,4.50
2024-01-19T11:26:11.344Z,4.60
2024-01-19T11:29:21.902Z,4.50
2024-01-19T11:31:52.418Z,4.60
2024-01-19T11:34:51.032Z,4.70
2024-01-19T11:37:45.619Z,4.70
2024-01-19T11:40:24.801Z,4.60
2024-01-19T11:42:52.341Z,4.70
2024-01-19T11:45:42.484Z,4.80
2024-01-19T11:48:12.532Z,4.90
2024-01-19T11:50:48.020Z,4.80
2024-01-19T11:53:15.794Z,4.80
2024-01-19T11:55:47.552Z,4.90
2024-01-19T11:58:36.530Z,5.00
2024-01-19T12:01:04.880Z,5.00
2024-01-19T12:03:32.147Z,5.00
2024-01-19T12:06:02.284Z,5.00
2024-01-19T12:08:29.975Z,5.10
2024-01-19T12:11:15.076Z,5.10
2024-01-19T12:13:48.604Z,5.00
2024-01-19T12:16:24.159Z,5.00
2024-01-19T12:18:58.167Z,5.00
2024-01-19T12:21:26.141Z,5.00
2024-01-19T12:23:58.360Z,5.10
2024-01-19T12:26:26.350Z,5.00
2024-01-19T12:28:54.979Z,5.00
2024-01-19T12:31:37.729Z,5.00
2024-01-19T12:34:14.344Z,5.10
2024-01-19T12:36:41.934Z,5.00
2024-01-19T12:39:12.736Z,5.00
2024-01-19T12:41:40.438Z,5.10
2024-01-19T12:44:07.642Z,5.10
2024-01-19T12:46:34.632Z,5.00
2024-01-19T12:49:04.556Z,5.00
2024-01-19T12:51:32.232Z,5.00
2024-01-19T12:54:00.218Z,5.10
2024-01-19T12:56:30.914Z,5.10
2024-01-19T12:59:16.949Z,5.20
2024-01-19T13:01:47.920Z,5.10
2024-01-19T13:04:16.840Z,5.20
2024-01-19T13:06:45.646Z,5.30
2024-01-19T13:09:17.342Z,5.40
2024-01-19T13:11:44.576Z,5.40
2024-01-19T13:14:13.163Z,5.60
2024-01-19T13:16:55.634Z,5.60
2024-01-19T13:19:22.964Z,5.70
2024-01-19T13:21:50.747Z,5.70
2024-01-19T13:24:17.748Z,5.70
2024-01-19T13:26:44.639Z,5.90
2024-01-19T13:29:11.672Z,5.70
2024-01-19T13:31:38.703Z,5.70
2024-01-19T13:34:05.677Z,5.50
2024-01-19T13:36:32.636Z,5.50
2024-01-19T13:39:01.598Z,5.40
2024-01-19T13:41:28.733Z,5.30
2024-01-19T13:43:59.573Z,5.20
2024-01-19T13:46:27.674Z,5.20
2024-01-19T13:48:54.844Z,5.20
2024-01-19T13:51:21.778Z,5.20
2024-01-19T13:53:49.380Z,5.20
2024-01-19T13:56:16.328Z,5.10
2024-01-19T13:58:43.349Z,5.00
2024-01-19T14:01:12.238Z,5.10
2024-01-19T14:03:39.921Z,5.10
2024-01-19T14:06:07.966Z,5.10
2024-01-19T14:08:35.882Z,5.10
2024-01-19T14:11:04.055Z,5.20
2024-01-19T14:13:31.296Z,5.20
2024-01-19T14:15:58.456Z,5.20
2024-01-19T14:18:25.482Z,5.10
2024-01-19T14:20:52.379Z,5.00
2024-01-19T14:23:19.432Z,5.00
2024-01-19T14:25:46.459Z,5.00
2024-01-19T14:28:13.774Z,5.00
2024-01-19T14:30:43.614Z,5.10
2024-01-19T14:33:11.217Z,4.90
2024-01-19T14:35:40.911Z,4.90
2024-01-19T14:38:08.651Z,4.90
2024-01-19T14:40:36.730Z,4.90
2024-01-19T14:43:03.755Z,4.80
2024-01-19T14:45:30.677Z,4.80
2024-01-19T14:47:58.636Z,4.80
2024-01-19T14:50:28.004Z,4.80
2024-01-19T14:53:02.198Z,4.70
2024-01-19T14:55:30.153Z,4.70
2024-01-19T14:57:57.075Z,4.70
2024-01-19T15:00:24.020Z,4.70
2024-01-19T15:02:51.054Z,4.70
2024-01-19T15:05:18.038Z,4.70
2024-01-19T15:07:45.148Z,4.60
2024-01-19T15:10:14.186Z,4.60
2024-01-19T15:12:41.232Z,4.60
2024-01-19T15:15:09.997Z,4.50
2024-01-19T15:17:38.481Z,4.50
2024-01-19T15:20:06.655Z,4.50
2024-01-19T15:22:35.603Z,4.50
2024-01-19T15:25:02.754Z,4.50
2024-01-19T15:27:29.648Z,4.50
2024-01-19T15:29:56.529Z,4.50
2024-01-19T15:32:23.519Z,4.40
2024-01-19T15:34:52.392Z,4.40
2024-01-19T15:37:19.346Z,4.40
2024-01-19T15:39:46.226Z,4.30
2024-01-19T15:42:13.114Z,4.30
2024-01-19T15:44:43.416Z,4.30
2024-01-19T15:47:10.372Z,4.20
2024-01-19T15:49:38.953Z,4.20
2024-01-19T15:52:06.804Z,4.20
2024-01-19T15:54:34.420Z,4.20
2024-01-19T15:57:01.531Z,4.10
2024-01-19T15:59:28.441Z,4.10
2024-01-19T16:01:55.375Z,4.00
2024-01-19T16:04:22.284Z,3.90
2024-01-19T16:06:49.177Z,3.90
2024-01-19T16:09:16.060Z,3.90
2024-01-19T16:11:42.939Z,3.90
2024-01-19T16:14:09.929Z,3.90
2024-01-19T16:16:37.131Z,3.90
2024-01-19T16:19:04.699Z,3.80
2024-01-19T16:21:31.739Z,3.80
2024-01-19T16:23:58.602Z,3.70
2024-01-19T16:26:26.135Z,3.60
2024-01-19T16:28:55.109Z,3.60
2024-01-19T16:31:23.201Z,3.60
2024-01-19T16:33:50.751Z,3.60
2024-01-19T16:36:17.994Z,3.50
2024-01-19T16:38:46.597Z,3.60
2024-01-19T16:41:13.855Z,3.50
2024-01-19T16:43:40.924Z,3.50
2024-01-19T16:46:07.940Z,3.40
2024-01-19T16:48:35.080Z,3.60
2024-01-19T16:51:04.272Z,3.40
2024-01-19T16:53:31.508Z,3.40
2024-01-19T16:55:59.521Z,3.40
2024-01-19T16:58:26.647Z,3.30
2024-01-19T17:00:53.844Z,3.30
2024-01-19T17:03:21.801Z,3.30
2024-01-19T17:05:49.037Z,3.30
2024-01-19T17:08:16.184Z,3.30
2024-01-19T17:10:43.210Z,3.30
2024-01-19T17:13:10.250Z,3.30
2024-01-19T17:15:38.028Z,3.30
2024-01-19T17:18:05.707Z,3.20
2024-01-19T17:20:33.870Z,3.20
2024-01-19T17:23:00.947Z,3.20
2024-01-19T17:25:28.626Z,3.10
2024-01-19T17:27:55.932Z,3.10
2024-01-19T17:30:25.322Z,3.10
2024-01-19T17:32:54.350Z,3.10
2024-01-19T17:35:24.652Z,2.90
2024-01-19T17:37:53.171Z,2.90
2024-01-19T17:40:20.903Z,2.90
2024-01-19T17:42:48.135Z,2.90
2024-01-19T17:45:21.930Z,3.00
2024-01-19T17:47:53.369Z,2.90
2024-01-19T17:50:23.400Z,2.80
2024-01-19T17:52:52.206Z,2.80
2024-01-19T17:55:19.393Z,2.90
2024-01-19T17:57:49.426Z,2.80
2024-01-19T18:00:18.720Z,2.90
2024-01-19T18:02:46.141Z,2.80
2024-01-19T18:05:13.461Z,2.90
2024-01-19T18:07:40.928Z,2.80
2024-01-19T18:10:08.639Z,2.90
2024-01-19T18:12:36.049Z,2.80
2024-01-19T18:15:03.169Z,2.80
2024-01-19T18:17:31.546Z,2.90
2024-01-19T18:19:59.156Z,2.80
2024-01-19T18:22:26.368Z,2.80
2024-01-19T18:24:53.314Z,2.90
2024-01-19T18:27:21.186Z,2.90
2024-01-19T18:29:49.680Z,2.90
2024-01-19T18:32:18.145Z,2.80
2024-01-19T18:34:45.828Z,2.80
2024-01-19T18:37:12.997Z,2.80
2024-01-19T18:39:39.940Z,2.80
2024-01-19T18:42:07.123Z,2.70
2024-01-19T18:44:33.956Z,2.70
2024-01-19T18:47:01.018Z,2.80
2024-01-19T18:49:32.378Z,2.70
2024-01-19T18:51:59.697Z,2.80
2024-01-19T18:54:26.854Z,2.80
2024-01-19T18:56:54.214Z,2.70
2024-01-19T18:59:24.350Z,2.60
2024-01-19T19:01:51.977Z,2.70
2024-01-19T19:04:19.333Z,2.70
2024-01-19T19:06:46.434Z,2.70
2024-01-19T19:09:13.861Z,2.70
2024-01-19T19:11:41.547Z,2.70
2024-01-19T19:14:11.199Z,2.60
2024-01-19T19:16:46.504Z,2.60
2024-01-19T19:19:16.075Z,2.50
2024-01-19T19:21:43.731Z,2.50
2024-01-19T19:24:11.170Z,2.60
2024-01-19T19:26:39.123Z,2.50
2024-01-19T19:29:07.107Z,2.50
2024-01-19T19:31:34.392Z,2.60
2024-01-19T19:34:01.976Z,2.60
2024-01-19T19:36:29.195Z,2.50
2024-01-19T19:38:56.391Z,2.50
2024-01-19T19:41:23.663Z,2.50
2024-01-19T19:43:51.796Z,2.60
2024-01-19T19:46:18.861Z,2.50
2024-01-19T19:48:45.885Z,2.60
2024-01-19T19:51:17.704Z,2.50
2024-01-19T19:53:44.763Z,2.60
2024-01-19T19:56:12.223Z,2.50
2024-01-19T19:58:41.904Z,2.50
2024-01-19T20:01:11.496Z,2.50
2024-01-19T20:03:41.623Z,2.50
2024-01-19T20:06:09.684Z,2.50
2024-01-19T20:08:37.293Z,2.50
2024-01-19T20:11:06.673Z,2.50
2024-01-19T20:13:35.027Z,2.50
2024-01-19T20:16:02.293Z,2.60
2024-01-19T20:18:30.663Z,2.50
2024-01-19T20:20:58.459Z,2.40
2024-01-19T20:23:26.514Z,2.50
2024-01-19T20:25:54.101Z,2.40
2024-01-19T20:28:22.711Z,2.40
2024-01-19T20:30:49.829Z,2.40
2024-01-19T20:33:17.514Z,2.50
2024-01-19T20:35:44.699Z,2.50
2024-01-19T20:38:12.640Z,2.40
2024-01-19T20:40:39.604Z,2.40
2024-01-19T20:43:07.290Z,2.30
2024-01-19T20:45:34.527Z,2.30
2024-01-19T20:48:01.766Z,2.30
2024-01-19T20:50:28.805Z,2.40
2024-01-19T20:52:55.962Z,2.40
2024-01-19T20:55:24.429Z,2.40
2024-01-19T20:57:51.380Z,2.40
2024-01-19T21:00:18.626Z,2.50
2024-01-19T21:02:45.729Z,2.40
2024-01-19T21:05:14.762Z,2.40
2024-01-19T21:07:41.978Z,2.50
2024-01-19T21:10:09.924Z,2.40
2024-01-19T21:12:40.064Z,2.50
2024-01-19T21:15:08.872Z,2.40
2024-01-19T21:17:35.968Z,2.50
2024-01-19T21:20:03.381Z,2.40
2024-01-19T21:22:33.347Z,2.40
2024-01-19T21:25:02.134Z,2.40
2024-01-19T21:27:30.428Z,2.40
2024-01-19T21:29:59.319Z,2.40
2024-01-19T21:32:26.271Z,2.40
2024-01-19T21:34:53.389Z,2.40
2024-01-19T21:37:20.419Z,2.40
2024-01-19T21:39:47.476Z,2.40
2024-01-19T21:42:16.357Z,2.30
2024-01-19T21:44:43.684Z,2.20
2024-01-19T21:47:10.925Z,2.30
2024-01-19T21:49:38.923Z,2.20
2024-01-19T21:52:06.435Z,2.20
2024-01-19T21:54:33.697Z,2.20
2024-01-19T21:57:01.255Z,2.20
2024-01-19T21:59:28.381Z,2.10
2024-01-19T22:01:55.678Z,2.10
2024-01-19T22:04:23.609Z,2.20
2024-01-19T22:06:50.887Z,2.10
2024-01-19T22:09:18.521Z,2.00
2024-01-19T22:11:54.167Z,2.00
2024-01-19T22:14:26.563Z,2.00
2024-01-19T22:16:53.808Z,2.10
2024-01-19T22:19:20.948Z,2.00
2024-01-19T22:21:47.986Z,2.00
2024-01-19T22:24:15.009Z,1.90
2024-01-19T22:26:46.219Z,1.90
2024-01-19T22:29:13.960Z,1.90
2024-01-19T22:31:41.918Z,1.90
2024-01-19T22:34:11.418Z,1.90
2024-01-19T22:36:39.536Z,1.90
2024-01-19T22:39:06.702Z,1.90
2024-01-19T22:41:34.008Z,1.90
2024-01-19T22:44:01.443Z,1.90
2024-01-19T22:46:28.565Z,2.00
2024-01-19T22:48:56.385Z,1.90
2024-01-19T22:51:25.011Z,2.00
2024-01-19T22:53:53.055Z,1.90
2024-01-19T22:56:20.315Z,1.90
2024-01-19T22:58:47.809Z,1.90
2024-01-19T23:01:15.650Z,1.90
2024-01-19T23:03:43.087Z,1.80
2024-01-19T23:06:10.462Z,1.80
2024-01-19T23:08:37.589Z,1.80
2024-01-19T23:11:05.053Z,1.80
2024-01-19T23:13:32.121Z,1.80
2024-01-19T23:15:59.282Z,1.80
2024-01-19T23:18:26.285Z,1.80
2024-01-19T23:20:53.266Z,1.70
2024-01-19T23:23:20.460Z,1.80
2024-01-19T23:25:47.540Z,1.70
2024-01-19T23:28:14.401Z,1.60
2024-01-19T23:30:41.296Z,1.70
2024-01-19T23:33:08.375Z,1.70
2024-01-19T23:35:35.623Z,1.70
2024-01-19T23:38:03.048Z,1.70
2024-01-19T23:40:30.435Z,1.70
2024-01-19T23:42:57.505Z,1.80
2024-01-19T23:45:26.003Z,1.80
2024-01-19T23:47:55.311Z,1.80
2024-01-19T23:50:23.991Z,1.70
2024-01-19T23:52:51.773Z,1.80
2024-01-19T23:55:19.117Z,1.80
2024-01-19T23:57:46.500Z,1.70
